Time;durP1;ratioP1;P1;durP2;ratioP2;P2;SDS_P1;SDS_P2;PMS_P1;PMS_P2;Temp;Humidity;BMP_temperature;BMP_pressure;BME280_temperature;BME280_humidity;BME280_pressure;Samples;Min_cycle;Max_cycle;Signal;HPM_P1;HPM_P2
2022/07/04 00:00:15;;;;;;;2.50;1.90;;;;;;;17.54;48.26;101299.66;685362;28;1142;-82
2022/07/04 00:00:35;;;;;;;2.45;1.90;;;;;;;17.57;48.34;101303.22;682577;29;812;-82
2022/07/04 00:00:56;;;;;;;2.80;2.00;;;;;;;17.56;48.38;101298.81;687573;28;1724;-82
2022/07/04 00:01:17;;;;;;;2.40;2.15;;;;;;;17.53;48.56;101302.28;692778;28;1184;-82
2022/07/04 00:01:38;;;;;;;2.53;2.22;;;;;;;17.60;48.41;101311.13;689965;28;1196;-82
2022/07/04 00:01:58;;;;;;;2.40;2.20;;;;;;;17.57;48.57;101311.97;688552;28;1158;-82
2022/07/04 00:02:19;;;;;;;2.58;2.10;;;;;;;17.58;48.54;101312.88;687331;28;1376;-83
2022/07/04 00:02:42;;;;;;;2.10;1.90;;;;;;;17.59;48.44;101318.19;684296;28;1378;-82
2022/07/04 00:03:02;;;;;;;2.10;1.90;;;;;;;17.56;48.66;101309.34;688708;28;1165;-83
2022/07/04 00:03:23;;;;;;;2.40;2.20;;;;;;;17.46;48.63;101303.97;691304;28;1446;-82
2022/07/04 00:03:44;;;;;;;2.45;2.25;;;;;;;17.50;48.70;101311.06;690403;28;1209;-82
2022/07/04 00:04:05;;;;;;;3.70;2.30;;;;;;;17.40;48.70;101294.28;691050;28;1973;-81
2022/07/04 00:04:26;;;;;;;3.90;2.10;;;;;;;17.43;48.70;101303.97;690306;28;1027;-82
2022/07/04 00:04:46;;;;;;;4.25;2.00;;;;;;;17.44;48.70;101304.88;682401;28;1216;-84
2022/07/04 00:05:10;;;;;;;3.13;1.90;;;;;;;17.39;48.90;101303.06;690476;28;1280;-82
2022/07/04 00:05:31;;;;;;;2.80;1.90;;;;;;;17.37;48.88;101304.81;690317;28;1015;-82
2022/07/04 00:05:51;;;;;;;3.00;2.10;;;;;;;17.44;48.84;101310.16;693192;28;1202;-82
2022/07/04 00:06:12;;;;;;;2.73;2.30;;;;;;;17.37;48.81;101306.56;691132;28;1240;-82
2022/07/04 00:06:33;;;;;;;2.92;2.42;;;;;;;17.36;48.88;101303.06;692334;28;1267;-82
2022/07/04 00:06:53;;;;;;;2.60;2.40;;;;;;;17.36;48.89;101307.44;693076;28;1289;-84
2022/07/04 00:07:14;;;;;;;2.50;2.30;;;;;;;17.34;49.03;101303.91;685418;28;1187;-82
2022/07/04 00:07:45;;;;;;;2.40;2.20;;;;;;;17.36;49.04;101313.59;687528;28;1310;-82
2022/07/04 00:08:07;;;;;;;2.30;2.10;;;;;;;17.35;49.01;101318.84;692476;28;1094;-83
2022/07/04 00:08:28;;;;;;;2.28;2.08;;;;;;;17.28;49.10;101306.47;687491;28;1250;-81
2022/07/04 00:08:49;;;;;;;2.40;2.20;;;;;;;17.30;49.11;101307.38;687629;28;1211;-82
2022/07/04 00:09:09;;;;;;;2.13;2.03;;;;;;;17.25;49.20;101299.41;687641;28;1305;-82
2022/07/04 00:09:31;;;;;;;2.40;2.20;;;;;;;17.32;49.11;101310.94;686469;28;1422;-82
2022/07/04 00:09:52;;;;;;;2.80;2.10;;;;;;;17.35;49.11;101310.94;686294;28;1161;-83
2022/07/04 00:10:16;;;;;;;3.70;2.20;;;;;;;17.30;49.28;101302.09;690828;28;1093;-83
2022/07/04 00:10:37;;;;;;;3.17;2.17;;;;;;;17.33;49.30;101310.06;682808;28;925;-83
2022/07/04 00:10:58;;;;;;;3.30;2.22;;;;;;;17.32;49.16;101311.78;689556;28;1240;-81
2022/07/04 00:11:19;;;;;;;3.55;2.45;;;;;;;17.33;49.26;101313.56;689110;28;1217;-82
2022/07/04 00:11:40;;;;;;;3.53;2.30;;;;;;;17.33;49.37;101312.69;690980;28;1188;-82
2022/07/04 00:12:06;;;;;;;3.40;2.20;;;;;;;17.32;49.25;101305.66;686808;28;1208;-82
2022/07/04 00:12:27;;;;;;;2.80;2.00;;;;;;;17.36;49.26;101320.63;685341;28;1142;-82
2022/07/04 00:12:48;;;;;;;2.45;2.22;;;;;;;17.30;49.25;101307.38;682616;29;1114;-82
2022/07/04 00:13:09;;;;;;;2.63;2.40;;;;;;;17.28;49.38;101307.38;689763;28;1389;-82
2022/07/04 00:13:30;;;;;;;2.63;2.40;;;;;;;17.28;49.24;101314.41;690421;28;1288;-82
2022/07/04 00:13:51;;;;;;;2.67;2.25;;;;;;;17.26;49.19;101307.34;687732;28;1292;-82
2022/07/04 00:14:11;;;;;;;2.30;2.10;;;;;;;17.30;49.15;101316.19;689460;28;1293;-82
2022/07/04 00:14:32;;;;;;;2.30;2.10;;;;;;;17.35;49.25;101319.75;690469;28;1097;-82
2022/07/04 00:14:53;;;;;;;2.28;2.08;;;;;;;17.35;49.67;101316.22;685037;28;1326;-82
2022/07/04 00:15:14;;;;;;;2.83;2.10;;;;;;;17.28;49.55;101315.28;689930;28;1301;-83
2022/07/04 00:15:34;;;;;;;2.70;2.00;;;;;;;17.30;49.34;101307.38;693313;28;854;-83
2022/07/04 00:15:55;;;;;;;2.58;2.00;;;;;;;17.34;49.30;101322.38;692813;28;1145;-82
2022/07/04 00:16:16;;;;;;;2.10;1.90;;;;;;;17.22;49.35;101305.53;690923;28;1137;-81
2022/07/04 00:16:37;;;;;;;2.40;2.00;;;;;;;17.28;49.29;101322.31;687779;28;823;-83
2022/07/04 00:16:58;;;;;;;2.40;2.00;;;;;;;17.30;49.50;101317.91;688284;28;840;-82
2022/07/04 00:17:19;;;;;;;2.97;2.20;;;;;;;17.31;49.53;101319.69;687467;28;1280;-82
2022/07/04 00:17:40;;;;;;;2.40;2.20;;;;;;;17.29;49.64;101321.44;687477;28;1408;-82
2022/07/04 00:18:02;;;;;;;2.30;2.10;;;;;;;17.23;49.37;101311.72;690138;28;1192;-82
2022/07/04 00:18:22;;;;;;;2.20;2.10;;;;;;;17.25;49.66;101308.22;694457;28;1312;-82
2022/07/04 00:18:43;;;;;;;2.20;2.00;;;;;;;17.27;49.62;101316.13;687829;28;708;-82
2022/07/04 00:19:04;;;;;;;2.40;2.00;;;;;;;17.21;49.59;101309.06;686258;28;1084;-82
2022/07/04 00:19:24;;;;;;;4.30;1.90;;;;;;;17.25;49.44;101308.22;685021;28;1315;-82
2022/07/04 00:19:45;;;;;;;4.07;1.80;;;;;;;17.26;49.45;101323.19;684618;28;1084;-83
2022/07/04 00:20:07;;;;;;;4.72;1.92;;;;;;;17.25;49.41;101309.97;683256;28;1153;-83
2022/07/04 00:20:28;;;;;;;3.30;2.10;;;;;;;17.29;49.63;101321.44;690275;28;869;-82
2022/07/04 00:20:49;;;;;;;3.78;2.20;;;;;;;17.25;49.60;101316.16;691157;28;1353;-82
2022/07/04 00:21:09;;;;;;;2.40;2.00;;;;;;;17.21;49.46;101310.78;687822;28;1695;-81
2022/07/04 00:21:30;;;;;;;2.40;2.00;;;;;;;17.23;49.75;101317.84;685227;28;1131;-82
2022/07/04 00:21:51;;;;;;;1.98;1.88;;;;;;;17.24;49.75;101313.47;685051;28;1195;-83
2022/07/04 00:22:11;;;;;;;2.20;2.00;;;;;;;17.15;49.62;101301.06;689425;28;1218;-82
2022/07/04 00:22:32;;;;;;;2.20;2.10;;;;;;;17.22;49.89;101313.47;690398;28;1215;-82
2022/07/04 00:22:54;;;;;;;2.50;2.30;;;;;;;17.19;49.80;101309.88;687214;28;1127;-83
2022/07/04 00:23:15;;;;;;;2.50;2.30;;;;;;;17.15;49.82;101314.25;687674;28;1107;-82
2022/07/04 00:23:35;;;;;;;2.60;2.40;;;;;;;17.16;49.89;101304.59;693666;28;805;-82
2022/07/04 00:23:57;;;;;;;2.63;2.30;;;;;;;17.12;49.88;101308.94;688136;28;1224;-82
2022/07/04 00:24:18;;;;;;;2.40;2.20;;;;;;;17.21;49.88;101316.97;688803;28;1410;-82
2022/07/04 00:24:38;;;;;;;2.25;2.05;;;;;;;17.15;49.72;101303.69;688187;28;1216;-83
2022/07/04 00:24:59;;;;;;;2.20;2.00;;;;;;;17.13;49.95;101305.44;685803;28;1366;-82
2022/07/04 00:25:20;;;;;;;2.78;2.20;;;;;;;17.20;49.73;101316.94;689982;28;1201;-82
2022/07/04 00:25:41;;;;;;;2.97;2.27;;;;;;;17.10;49.89;101300.16;688100;28;1217;-82
2022/07/04 00:26:01;;;;;;;2.33;2.05;;;;;;;17.15;49.85;101308.09;689076;28;1300;-82
2022/07/04 00:26:22;;;;;;;2.20;2.00;;;;;;;17.19;49.86;101316.06;692914;28;1368;-82
2022/07/04 00:26:43;;;;;;;2.20;2.00;;;;;;;17.17;49.73;101315.16;696465;28;807;-83
2022/07/04 00:27:04;;;;;;;3.40;2.13;;;;;;;17.13;49.90;101305.44;694922;28;1320;-83
2022/07/04 00:27:25;;;;;;;3.70;2.20;;;;;;;17.10;50.00;101302.78;693364;28;1417;-83
2022/07/04 00:27:46;;;;;;;3.70;2.20;;;;;;;17.15;49.73;101306.31;690480;28;1444;-82
2022/07/04 00:28:07;;;;;;;3.50;2.30;;;;;;;17.13;50.03;101306.34;688636;28;1396;-82
2022/07/04 00:28:28;;;;;;;3.10;2.20;;;;;;;17.13;49.93;101310.72;688128;28;1195;-82
2022/07/04 00:28:48;;;;;;;2.40;2.20;;;;;;;17.10;50.00;101305.41;688184;28;1223;-82
2022/07/04 00:29:09;;;;;;;3.30;2.30;;;;;;;17.08;50.00;101302.75;689952;28;1397;-82
2022/07/04 00:29:30;;;;;;;3.53;2.25;;;;;;;17.12;50.14;101303.66;687613;28;1405;-82
2022/07/04 00:29:51;;;;;;;4.57;2.20;;;;;;;17.12;50.06;101314.22;687376;28;1255;-82
2022/07/04 00:30:12;;;;;;;3.40;2.03;;;;;;;17.04;50.15;101295.72;690107;28;1368;-83
2022/07/04 00:30:33;;;;;;;3.28;2.20;;;;;;;17.10;50.37;101311.56;688187;28;1217;-82
2022/07/04 00:30:54;;;;;;;3.13;2.30;;;;;;;17.08;50.34;101315.94;690866;28;1266;-82
2022/07/04 00:31:14;;;;;;;3.23;2.30;;;;;;;16.97;50.23;101293.88;694552;28;1074;-82
2022/07/04 00:31:35;;;;;;;3.25;2.25;;;;;;;17.05;50.15;101312.41;690858;28;1287;-83
2022/07/04 00:31:56;;;;;;;2.30;2.10;;;;;;;17.03;50.48;101303.59;687646;28;2314;-82
2022/07/04 00:32:18;;;;;;;2.30;2.10;;;;;;;17.03;50.45;101309.72;686817;28;1433;-82
2022/07/04 00:32:39;;;;;;;2.30;2.10;;;;;;;16.97;50.47;101299.16;690879;28;1271;-84
2022/07/04 00:32:59;;;;;;;2.38;2.17;;;;;;;17.04;50.57;101315.91;685203;28;1192;-82
2022/07/04 00:33:20;;;;;;;2.20;2.00;;;;;;;17.02;50.48;101307.09;687884;28;1145;-82
2022/07/04 00:33:41;;;;;;;2.20;2.00;;;;;;;16.99;50.61;101307.94;688260;28;894;-83
2022/07/04 00:34:01;;;;;;;2.38;2.00;;;;;;;16.95;50.39;101300.88;690646;28;1300;-82
2022/07/04 00:34:22;;;;;;;2.37;2.10;;;;;;;16.98;50.65;101314.97;692849;28;1450;-82
2022/07/04 00:34:43;;;;;;;2.67;2.10;;;;;;;16.97;50.44;101310.56;685093;28;1143;-82
2022/07/04 00:35:05;;;;;;;2.60;2.10;;;;;;;16.96;50.69;101308.78;688236;28;1631;-83
2022/07/04 00:35:26;;;;;;;2.42;2.20;;;;;;;16.92;50.60;101300.84;693465;28;1361;-83
2022/07/04 00:35:46;;;;;;;2.42;2.20;;;;;;;16.93;50.77;101306.16;693578;28;1242;-82
2022/07/04 00:36:07;;;;;;;2.50;2.30;;;;;;;16.97;50.64;101317.59;692694;28;1325;-82
2022/07/04 00:36:28;;;;;;;3.97;2.38;;;;;;;16.94;50.72;101315.81;693225;28;1108;-82
2022/07/04 00:36:48;;;;;;;4.18;2.38;;;;;;;16.94;50.81;101307.91;690981;28;1295;-83
2022/07/04 00:37:09;;;;;;;4.57;2.30;;;;;;;17.00;50.83;101314.97;685646;28;1198;-83
2022/07/04 00:37:30;;;;;;;2.93;2.10;;;;;;;16.91;50.75;101302.59;685498;28;1265;-82
2022/07/04 00:37:51;;;;;;;2.45;2.03;;;;;;;16.99;50.77;101308.81;685264;28;1347;-82
2022/07/04 00:38:12;;;;;;;2.63;2.03;;;;;;;16.90;50.80;101297.31;688867;28;1398;-82
2022/07/04 00:38:33;;;;;;;2.63;2.10;;;;;;;16.91;50.72;101305.22;688014;28;1190;-82
2022/07/04 00:38:54;;;;;;;2.47;2.20;;;;;;;16.94;50.82;101305.28;688261;28;881;-82
2022/07/04 00:39:14;;;;;;;2.30;2.10;;;;;;;16.91;50.82;101304.34;688692;28;1275;-82
2022/07/04 00:39:35;;;;;;;2.58;2.10;;;;;;;16.95;50.85;101312.31;685232;28;741;-82
2022/07/04 00:39:56;;;;;;;2.70;2.10;;;;;;;16.94;51.04;101307.91;682742;28;1293;-82
2022/07/04 00:40:17;;;;;;;2.83;2.10;;;;;;;16.87;50.81;101303.44;688445;28;1267;-83
2022/07/04 00:40:38;;;;;;;2.10;1.90;;;;;;;16.90;50.98;101303.47;689543;28;865;-82
2022/07/04 00:41:00;;;;;;;2.30;2.00;;;;;;;16.83;51.02;101302.53;688612;28;1531;-83
2022/07/04 00:41:21;;;;;;;2.50;2.30;;;;;;;16.89;50.94;101301.69;689785;28;1239;-82
2022/07/04 00:41:41;;;;;;;2.90;2.63;;;;;;;16.85;51.16;101299.91;693690;28;1151;-82
2022/07/04 00:42:03;;;;;;;3.10;2.80;;;;;;;16.88;50.94;101305.19;687837;28;1226;-82
2022/07/04 00:42:24;;;;;;;2.83;2.60;;;;;;;16.90;51.01;101314.00;684875;28;1421;-82
2022/07/04 00:42:45;;;;;;;3.33;2.47;;;;;;;16.93;50.81;101306.16;688145;28;1324;-82
2022/07/04 00:43:06;;;;;;;3.33;2.38;;;;;;;16.86;51.08;101294.63;685057;28;1628;-82
2022/07/04 00:43:28;;;;;;;2.70;2.20;;;;;;;16.84;51.03;101293.75;688061;28;1054;-83
2022/07/04 00:44:08;;;;;;;2.50;2.28;;;;;;;16.93;50.75;101307.88;690901;28;857;-83
2022/07/04 00:44:30;;;;;;;3.22;2.30;;;;;;;16.94;50.87;101304.38;693429;28;976;-82
2022/07/04 00:44:51;;;;;;;5.10;2.50;;;;;;;16.90;50.77;101289.41;690855;28;1361;-82
2022/07/04 00:45:12;;;;;;;4.57;2.50;;;;;;;16.94;51.18;101304.38;687570;28;1753;-82
2022/07/04 00:45:32;;;;;;;4.47;2.40;;;;;;;16.91;50.89;101302.59;685425;28;1159;-82
2022/07/04 00:45:54;;;;;;;5.20;2.30;;;;;;;16.86;50.90;101299.03;685634;28;1213;-83
2022/07/04 00:46:14;;;;;;;6.50;2.40;;;;;;;16.89;51.19;101299.06;689002;28;1114;-82
2022/07/04 00:46:35;;;;;;;5.90;2.30;;;;;;;16.91;51.17;101310.50;690806;28;1252;-82
2022/07/04 00:46:56;;;;;;;3.50;1.90;;;;;;;16.82;51.23;101286.69;690176;28;1359;-82
2022/07/04 00:47:17;;;;;;;2.38;1.90;;;;;;;16.87;51.19;101292.91;686686;28;1255;-82
2022/07/04 00:47:37;;;;;;;3.38;2.10;;;;;;;16.85;51.25;101302.53;687959;28;1375;-82
2022/07/04 00:47:58;;;;;;;2.80;2.13;;;;;;;16.81;51.07;101292.81;687992;28;1383;-82
2022/07/04 00:48:19;;;;;;;3.10;2.13;;;;;;;16.82;51.19;101292.84;686205;28;1230;-82
2022/07/04 00:48:40;;;;;;;3.55;2.28;;;;;;;16.86;51.32;101306.94;685341;28;1314;-83
2022/07/04 00:49:02;;;;;;;3.58;2.20;;;;;;;16.87;51.58;101303.44;685205;28;1364;-82
2022/07/04 00:49:23;;;;;;;2.90;2.17;;;;;;;16.79;51.22;101286.66;687989;28;1120;-82
2022/07/04 00:49:46;;;;;;;2.20;2.00;;;;;;;16.84;51.16;101298.16;687705;28;1422;-82
2022/07/04 00:50:07;;;;;;;2.40;2.10;;;;;;;16.77;51.58;101294.53;690555;28;1314;-82
2022/07/04 00:50:28;;;;;;;3.17;2.00;;;;;;;16.78;51.52;101296.31;690167;28;1343;-82
2022/07/04 00:50:49;;;;;;;2.70;1.83;;;;;;;16.82;51.32;101299.84;693621;28;1052;-82
2022/07/04 00:51:10;;;;;;;3.25;1.90;;;;;;;16.80;51.47;101301.59;688198;28;1380;-82
2022/07/04 00:51:31;;;;;;;2.43;1.90;;;;;;;16.81;51.42;101301.63;688013;28;1303;-83
2022/07/04 00:51:52;;;;;;;5.38;2.20;;;;;;;16.80;51.42;101297.22;690949;28;1377;-82
2022/07/04 00:52:14;;;;;;;5.20;2.10;;;;;;;16.79;51.56;101299.84;690326;28;1380;-82
2022/07/04 00:52:35;;;;;;;5.55;2.20;;;;;;;16.75;51.62;101292.75;685449;28;1284;-82
2022/07/04 00:52:56;;;;;;;2.88;2.00;;;;;;;16.74;51.63;101301.53;690486;28;1714;-82
2022/07/04 00:53:18;;;;;;;3.58;2.20;;;;;;;16.75;51.66;101295.38;693240;28;1123;-82
2022/07/04 00:53:39;;;;;;;3.35;2.10;;;;;;;16.68;51.58;101290.06;690943;28;1240;-83
2022/07/04 00:54:00;;;;;;;6.70;2.50;;;;;;;16.69;51.59;101297.09;685843;28;1355;-82
2022/07/04 00:54:26;;;;;;;6.18;2.45;;;;;;;16.71;51.71;101298.00;689906;28;1225;-83
2022/07/04 00:54:47;;;;;;;5.50;2.45;;;;;;;16.72;51.90;101299.75;690893;28;1115;-83
2022/07/04 00:55:09;;;;;;;5.03;2.40;;;;;;;16.72;51.64;101299.75;686705;28;1349;-82
2022/07/04 00:55:30;;;;;;;4.60;2.30;;;;;;;16.66;51.68;101290.91;685465;28;1137;-82
2022/07/04 00:55:52;;;;;;;2.60;2.03;;;;;;;16.66;51.84;101291.78;685400;28;1236;-83
2022/07/04 00:56:13;;;;;;;2.20;1.90;;;;;;;16.72;51.73;101297.13;687439;28;1142;-83
2022/07/04 00:56:38;;;;;;;2.20;1.90;;;;;;;16.65;51.76;101287.38;685431;28;796;-82
2022/07/04 00:57:00;;;;;;;2.30;2.10;;;;;;;16.69;51.82;101294.47;685310;28;1252;-82
2022/07/04 00:57:21;;;;;;;3.28;2.20;;;;;;;16.68;51.75;101305.88;689835;28;1213;-82
2022/07/04 00:57:42;;;;;;;3.85;2.10;;;;;;;16.63;51.92;101290.88;689885;28;1539;-81
2022/07/04 00:58:03;;;;;;;3.50;2.00;;;;;;;16.65;51.91;101297.94;689020;28;1206;-82
2022/07/04 00:58:24;;;;;;;2.97;2.00;;;;;;;16.64;51.95;101290.91;690732;28;1191;-82
2022/07/04 00:58:45;;;;;;;2.40;2.20;;;;;;;16.62;51.83;101290.00;688406;28;1063;-82
2022/07/04 00:59:07;;;;;;;3.60;2.30;;;;;;;16.70;52.00;101311.16;686856;28;1184;-82
2022/07/04 00:59:28;;;;;;;3.13;2.20;;;;;;;16.60;52.01;101289.09;687944;28;1276;-82
2022/07/04 00:59:49;;;;;;;3.65;2.10;;;;;;;16.71;52.03;101311.19;690626;28;1371;-81
2022/07/04 01:00:10;;;;;;;3.40;2.08;;;;;;;16.64;51.70;101298.81;693102;28;1233;-82
2022/07/04 01:00:31;;;;;;;3.53;2.00;;;;;;;16.67;51.96;101309.34;688026;28;1375;-82
2022/07/04 01:00:52;;;;;;;2.40;2.00;;;;;;;16.62;51.93;101291.75;688251;28;1393;-82
2022/07/04 01:01:12;;;;;;;2.30;2.00;;;;;;;16.65;51.81;101302.34;685305;28;1360;-82
2022/07/04 01:01:34;;;;;;;2.20;2.00;;;;;;;16.66;52.08;101309.38;684485;28;1817;-82
2022/07/04 01:01:56;;;;;;;2.05;1.95;;;;;;;16.58;52.05;101296.09;685510;28;776;-83
2022/07/04 01:02:16;;;;;;;3.45;2.10;;;;;;;16.63;52.06;101301.41;690430;28;1180;-82
2022/07/04 01:02:37;;;;;;;4.32;2.38;;;;;;;16.59;52.19;101297.84;690795;28;1011;-82
2022/07/04 01:02:58;;;;;;;4.80;2.37;;;;;;;16.61;52.22;101306.69;688123;28;760;-83
2022/07/04 01:03:18;;;;;;;3.35;2.20;;;;;;;16.57;52.15;101302.22;690512;28;1171;-82
2022/07/04 01:03:39;;;;;;;3.22;2.00;;;;;;;16.58;52.19;101306.63;693523;28;1307;-81
2022/07/04 01:04:02;;;;;;;4.45;2.13;;;;;;;16.62;52.03;101307.53;690256;28;1910;-82
2022/07/04 01:04:24;;;;;;;5.03;2.40;;;;;;;16.60;52.16;101304.91;688151;28;1388;-82
2022/07/04 01:04:45;;;;;;;5.60;2.50;;;;;;;16.58;52.15;101302.25;693509;28;1251;-82
2022/07/04 01:05:06;;;;;;;3.90;2.40;;;;;;;16.63;52.32;101309.31;690228;28;1323;-83
2022/07/04 01:05:27;;;;;;;4.03;2.30;;;;;;;16.57;52.05;101304.88;685204;28;1734;-82
2022/07/04 01:05:48;;;;;;;4.20;2.30;;;;;;;16.58;52.20;101298.72;690761;28;1290;-82
2022/07/04 01:06:09;;;;;;;3.63;2.10;;;;;;;16.54;52.25;101299.56;689997;28;1660;-82
2022/07/04 01:06:49;;;;;;;3.10;2.20;;;;;;;16.63;52.34;101306.69;687991;28;1164;-82
2022/07/04 01:08:49;;;;;;;3.08;2.10;;;;;;;16.46;52.54;101291.56;693553;28;855;-82
2022/07/04 01:09:10;;;;;;;5.90;2.22;;;;;;;16.46;52.41;101294.19;694585;28;1194;-82
2022/07/04 01:09:31;;;;;;;5.95;2.35;;;;;;;16.44;52.60;101299.47;690294;28;1198;-82
2022/07/04 01:09:53;;;;;;;5.47;2.30;;;;;;;16.42;52.60;101289.78;687921;28;1218;-82
2022/07/04 01:10:13;;;;;;;2.42;2.22;;;;;;;16.47;52.73;101303.00;687720;28;1429;-83
2022/07/04 01:10:34;;;;;;;3.55;2.20;;;;;;;16.47;52.81;101300.38;687506;28;1083;-82
2022/07/04 01:10:54;;;;;;;4.93;2.33;;;;;;;16.41;52.79;101294.16;688145;28;669;-82
2022/07/04 01:11:16;;;;;;;6.13;2.30;;;;;;;16.40;52.87;101302.91;686561;28;1361;-82
2022/07/04 01:11:37;;;;;;;5.10;2.50;;;;;;;16.39;52.87;101295.88;688106;28;1244;-83
2022/07/04 01:11:58;;;;;;;3.83;2.40;;;;;;;16.36;52.80;101290.59;687849;28;1749;-82
2022/07/04 01:12:29;;;;;;;5.10;2.70;;;;;;;16.42;52.72;101295.91;686556;28;1263;-82
2022/07/04 01:12:50;;;;;;;5.40;2.63;;;;;;;16.38;52.62;101287.94;685348;28;1129;-83
2022/07/04 01:13:23;;;;;;;5.28;2.40;;;;;;;16.46;52.78;101301.22;689459;28;1238;-82
2022/07/04 01:13:44;;;;;;;3.20;2.20;;;;;;;16.42;52.93;101300.31;687992;28;1268;-82
2022/07/04 01:14:08;;;;;;;2.80;2.15;;;;;;;16.46;52.76;101301.22;688933;28;1234;-83
2022/07/04 01:14:28;;;;;;;2.97;2.10;;;;;;;16.36;53.01;101287.94;690822;28;1081;-82
2022/07/04 01:14:49;;;;;;;3.03;2.20;;;;;;;16.42;52.95;101298.53;688001;28;1235;-82
2022/07/04 01:15:10;;;;;;;3.23;2.10;;;;;;;16.43;53.07;101295.03;687267;28;1342;-82
2022/07/04 01:15:31;;;;;;;3.00;2.20;;;;;;;16.35;52.86;101280.88;687045;28;1459;-82
2022/07/04 01:15:52;;;;;;;2.40;2.20;;;;;;;16.38;53.10;101294.13;693364;28;1246;-83
2022/07/04 01:16:13;;;;;;;2.90;2.40;;;;;;;16.39;53.10;101292.34;689980;28;1372;-82
2022/07/04 01:16:35;;;;;;;3.00;2.40;;;;;;;16.41;53.23;101299.41;685399;28;1115;-82
2022/07/04 01:16:56;;;;;;;3.13;2.25;;;;;;;16.34;53.00;101284.41;690359;28;1290;-82
2022/07/04 01:17:16;;;;;;;2.47;2.00;;;;;;;16.41;52.89;101303.81;692038;28;1345;-82
2022/07/04 01:17:37;;;;;;;4.05;2.00;;;;;;;16.35;53.03;101295.81;688083;28;1301;-82
2022/07/04 01:17:57;;;;;;;4.20;2.20;;;;;;;16.38;52.91;101293.22;692346;28;1865;-82
2022/07/04 01:18:18;;;;;;;5.20;2.50;;;;;;;16.43;52.97;101300.31;689242;28;1427;-82
2022/07/04 01:18:40;;;;;;;5.20;3.10;;;;;;;16.36;53.05;101295.84;688215;28;717;-82
2022/07/04 01:19:02;;;;;;;5.15;3.00;;;;;;;16.33;53.02;101290.53;688005;28;1444;-83
2022/07/04 01:19:23;;;;;;;3.63;2.53;;;;;;;16.33;53.17;101298.44;685223;28;1168;-81
2022/07/04 01:19:44;;;;;;;2.28;2.08;;;;;;;16.36;53.09;101303.75;682281;28;1312;-82
2022/07/04 01:20:09;;;;;;;3.13;2.10;;;;;;;16.36;53.38;101300.22;686486;28;1293;-82
2022/07/04 01:20:35;;;;;;;3.70;2.40;;;;;;;16.38;53.34;101307.28;690562;28;1287;-82
2022/07/04 01:20:56;;;;;;;2.58;2.35;;;;;;;16.30;53.12;101298.41;688092;28;810;-82
2022/07/04 01:21:16;;;;;;;2.75;2.35;;;;;;;16.30;53.11;101301.91;692652;28;1723;-82
2022/07/04 01:21:38;;;;;;;2.77;2.40;;;;;;;16.30;53.39;101301.03;689626;28;1691;-82
2022/07/04 01:22:06;;;;;;;3.20;2.35;;;;;;;16.31;53.45;101303.66;685192;28;1380;-81
2022/07/04 01:22:27;;;;;;;3.97;2.30;;;;;;;16.28;53.43;101302.75;684501;28;1252;-82
2022/07/04 01:22:47;;;;;;;3.92;2.15;;;;;;;16.28;53.53;101303.66;688001;28;1176;-82
2022/07/04 01:23:09;;;;;;;4.03;2.10;;;;;;;16.24;53.45;101290.38;692017;28;1246;-82
2022/07/04 01:23:30;;;;;;;3.17;2.20;;;;;;;16.31;53.66;101308.94;693454;28;1204;-82
2022/07/04 01:23:51;;;;;;;3.67;2.25;;;;;;;16.26;53.48;101299.22;690831;28;1139;-82
2022/07/04 01:24:13;;;;;;;3.92;2.35;;;;;;;16.30;53.59;101301.91;687303;28;1910;-82
2022/07/04 01:24:34;;;;;;;4.40;2.40;;;;;;;16.28;53.60;101292.22;690658;28;1376;-82
2022/07/04 01:24:54;;;;;;;3.50;2.50;;;;;;;16.27;53.38;101299.25;687993;28;1286;-82
2022/07/04 01:25:15;;;;;;;3.10;2.60;;;;;;;16.29;53.63;101305.41;690394;28;1321;-82
2022/07/04 01:25:36;;;;;;;3.07;2.77;;;;;;;16.18;53.56;101292.06;685246;28;1097;-82
2022/07/04 01:25:57;;;;;;;3.65;2.78;;;;;;;16.27;53.49;101304.50;688825;28;1261;-82
2022/07/04 01:26:18;;;;;;;5.03;2.75;;;;;;;16.28;53.93;101313.28;695882;28;1250;-82
2022/07/04 01:26:39;;;;;;;4.88;2.53;;;;;;;16.17;53.76;101292.06;687968;28;1173;-82
2022/07/04 01:27:00;;;;;;;4.20;2.40;;;;;;;16.18;53.80;101297.34;687964;28;2060;-82
2022/07/04 01:27:20;;;;;;;2.92;2.38;;;;;;;16.24;53.99;101306.19;687258;28;1298;-82
2022/07/04 01:27:41;;;;;;;2.92;2.30;;;;;;;16.15;53.68;101301.66;687385;28;1258;-82
2022/07/04 01:28:03;;;;;;;2.73;2.33;;;;;;;16.21;53.85;101303.53;689758;28;1538;-82
2022/07/04 01:28:24;;;;;;;3.97;2.33;;;;;;;16.12;53.89;101291.97;690630;28;1343;-82
2022/07/04 01:28:45;;;;;;;4.10;2.42;;;;;;;16.11;53.86;101284.94;685292;28;1377;-82
2022/07/04 01:29:06;;;;;;;3.97;2.42;;;;;;;16.12;53.98;101291.97;686255;28;1647;-82
2022/07/04 01:29:27;;;;;;;2.80;2.30;;;;;;;16.13;53.96;101292.88;687694;28;1152;-82
2022/07/04 01:29:48;;;;;;;3.60;2.40;;;;;;;16.15;53.92;101302.56;687482;28;1755;-82
2022/07/04 01:30:10;;;;;;;3.35;2.35;;;;;;;16.15;54.10;101302.56;684229;28;1571;-82
2022/07/04 01:30:30;;;;;;;3.08;2.28;;;;;;;16.09;54.20;101291.94;684343;28;1541;-82
2022/07/04 01:30:52;;;;;;;2.50;2.30;;;;;;;16.13;54.28;101299.03;688099;28;887;-82
2022/07/04 01:31:12;;;;;;;2.83;2.53;;;;;;;16.12;54.03;101294.63;688323;28;1710;-82
2022/07/04 01:31:33;;;;;;;2.78;2.50;;;;;;;16.14;54.16;101294.63;687929;28;1145;-82
2022/07/04 01:31:54;;;;;;;3.90;2.58;;;;;;;16.12;54.08;101299.00;685347;28;805;-82
2022/07/04 01:32:14;;;;;;;4.63;2.70;;;;;;;16.15;54.06;101301.66;687463;28;1493;-83
2022/07/04 01:32:35;;;;;;;4.32;2.90;;;;;;;16.14;53.96;101306.06;683352;28;1323;-82
2022/07/04 01:32:56;;;;;;;3.00;2.70;;;;;;;16.08;54.08;101295.44;685282;28;1388;-82
2022/07/04 01:33:17;;;;;;;3.87;2.77;;;;;;;16.04;54.01;101288.38;690237;28;1961;-82
2022/07/04 01:33:38;;;;;;;5.20;2.88;;;;;;;16.10;54.20;101304.25;687934;28;1213;-82
2022/07/04 01:33:59;;;;;;;5.85;2.80;;;;;;;16.05;54.30;101292.78;687546;28;1630;-83
2022/07/04 01:34:20;;;;;;;4.32;2.55;;;;;;;16.09;54.35;101298.97;687771;28;1414;-82
2022/07/04 01:34:41;;;;;;;3.53;2.47;;;;;;;16.08;54.27;101300.72;688536;28;1295;-82
2022/07/04 01:35:02;;;;;;;2.60;2.40;;;;;;;16.03;54.29;101298.03;689930;28;2132;-82
2022/07/04 01:35:23;;;;;;;2.50;2.30;;;;;;;16.06;54.58;101297.19;689708;28;1274;-82
2022/07/04 01:35:44;;;;;;;2.40;2.20;;;;;;;16.07;54.32;101304.22;689559;28;1321;-82
2022/07/04 01:36:05;;;;;;;3.40;2.30;;;;;;;16.00;54.41;101299.72;684660;28;1699;-82
2022/07/04 01:36:27;;;;;;;3.58;2.28;;;;;;;16.03;54.55;101303.28;687024;28;1282;-82
2022/07/04 01:36:48;;;;;;;3.60;2.22;;;;;;;16.01;54.41;101305.03;688192;28;1384;-82
2022/07/04 01:37:09;;;;;;;2.40;2.20;;;;;;;16.01;54.42;101304.13;686384;28;1540;-83
2022/07/04 01:37:29;;;;;;;2.50;2.30;;;;;;;15.98;54.46;101298.84;689879;28;1560;-83
2022/07/04 01:37:51;;;;;;;3.67;2.50;;;;;;;15.93;54.44;101296.13;690743;28;1431;-82
2022/07/04 01:38:12;;;;;;;4.10;2.50;;;;;;;15.88;54.56;101290.78;687589;28;1503;-82
2022/07/04 01:38:32;;;;;;;3.72;2.45;;;;;;;15.96;54.55;101305.78;690701;28;1214;-82
2022/07/04 01:38:54;;;;;;;2.58;2.30;;;;;;;15.87;54.65;101285.50;688322;28;1286;-82
2022/07/04 01:39:14;;;;;;;2.63;2.42;;;;;;;15.88;54.70;101292.53;684924;28;1704;-82
2022/07/04 01:39:35;;;;;;;2.78;2.58;;;;;;;15.96;54.55;101304.06;690326;28;1257;-83
2022/07/04 01:39:56;;;;;;;3.88;2.78;;;;;;;15.94;54.61;101299.63;688883;28;1200;-82
2022/07/04 01:40:18;;;;;;;3.50;2.67;;;;;;;15.92;54.88;101299.59;688672;28;1584;-82
2022/07/04 01:40:39;;;;;;;3.30;2.70;;;;;;;15.93;54.79;101306.66;688933;28;1229;-82
2022/07/04 01:41:00;;;;;;;2.70;2.50;;;;;;;15.92;54.77;101293.47;689542;28;1374;-82
2022/07/04 01:41:20;;;;;;;2.80;2.50;;;;;;;15.86;54.98;101292.50;685669;28;1164;-82
2022/07/04 01:41:41;;;;;;;3.00;2.43;;;;;;;15.93;54.86;101301.41;688114;28;842;-83
2022/07/04 01:42:02;;;;;;;2.58;2.38;;;;;;;15.86;54.75;101294.28;685613;28;1774;-82
2022/07/04 01:42:23;;;;;;;2.50;2.30;;;;;;;15.89;54.74;101299.56;692537;28;1300;-82
2022/07/04 01:42:43;;;;;;;3.00;2.50;;;;;;;15.83;54.72;101288.94;693597;28;1174;-82
2022/07/04 01:43:04;;;;;;;3.33;2.60;;;;;;;15.92;54.78;101304.88;688612;28;1414;-82
2022/07/04 01:43:25;;;;;;;3.33;2.58;;;;;;;15.83;54.77;101284.59;687671;28;1216;-82